createdAt,value
2019-05-22T00:00:41.896Z,100634.00
2019-05-22T00:03:20.223Z,100629.00
2019-05-22T00:05:51.445Z,100599.00
2019-05-22T00:08:22.189Z,100624.00
2019-05-22T00:10:55.308Z,100616.00
2019-05-22T00:13:34.764Z,100616.00
2019-05-22T00:16:04.719Z,100615.00
2019-05-22T00:18:35.761Z,100608.00
2019-05-22T00:21:08.211Z,100615.00
2019-05-22T00:23:40.829Z,100611.00
2019-05-22T00:26:12.483Z,100611.00
2019-05-22T00:28:43.605Z,100610.00
2019-05-22T00:31:14.944Z,100615.00
2019-05-22T00:33:44.986Z,100623.00
2019-05-22T00:36:17.499Z,100629.00
2019-05-22T00:38:48.559Z,100633.00
2019-05-22T00:41:20.897Z,100631.00
2019-05-22T00:43:51.649Z,100642.00
2019-05-22T00:46:25.001Z,100646.00
2019-05-22T00:48:54.857Z,100639.00
2019-05-22T00:51:36.347Z,100639.00
2019-05-22T00:54:16.519Z,100642.00
2019-05-22T00:56:52.457Z,100635.00
2019-05-22T00:59:27.344Z,100633.00
2019-05-22T01:02:08.219Z,100622.00
2019-05-22T01:04:42.309Z,100620.00
2019-05-22T01:07:18.287Z,100624.00
2019-05-22T01:10:01.477Z,100620.00
2019-05-22T01:12:32.815Z,100623.00
2019-05-22T01:15:07.422Z,100613.00
2019-05-22T01:17:38.360Z,100619.00
2019-05-22T01:20:11.874Z,100623.00
2019-05-22T01:22:42.597Z,100634.00
2019-05-22T01:25:16.417Z,100633.00
2019-05-22T01:27:47.691Z,100630.00
2019-05-22T01:30:22.389Z,100634.00
2019-05-22T01:32:55.682Z,100626.00
2019-05-22T01:35:31.119Z,100640.00
2019-05-22T01:38:03.149Z,100639.00
2019-05-22T01:41:05.980Z,100636.00
2019-05-22T01:43:39.863Z,100639.00
2019-05-22T01:46:12.285Z,100638.00
2019-05-22T01:48:45.555Z,100636.00
2019-05-22T01:51:20.139Z,100644.00
2019-05-22T01:53:54.024Z,100642.00
2019-05-22T01:56:27.249Z,100625.00
2019-05-22T01:58:58.492Z,100633.00
2019-05-22T02:01:30.478Z,100628.00
2019-05-22T02:04:02.052Z,100631.00
2019-05-22T02:06:35.142Z,100625.00
2019-05-22T02:09:21.259Z,100626.00
2019-05-22T02:11:56.794Z,100625.00
2019-05-22T02:14:30.527Z,100628.00
2019-05-22T02:17:03.067Z,100638.00
2019-05-22T02:19:34.002Z,100642.00
2019-05-22T02:22:07.137Z,100530.00
2019-05-22T02:24:37.499Z,100637.00
2019-05-22T02:27:08.296Z,100632.00
2019-05-22T02:29:40.804Z,100640.00
2019-05-22T02:32:12.910Z,100637.00
2019-05-22T02:34:44.264Z,100626.00
2019-05-22T02:37:16.043Z,100633.00
2019-05-22T02:39:47.996Z,100634.00
2019-05-22T02:42:26.276Z,100627.00
2019-05-22T02:44:57.774Z,100631.00
2019-05-22T02:47:29.664Z,100636.00
2019-05-22T02:50:00.603Z,100626.00
2019-05-22T02:52:30.817Z,100620.00
2019-05-22T02:55:00.676Z,100621.00
2019-05-22T02:57:32.128Z,100621.00
2019-05-22T03:00:06.101Z,100625.00
2019-05-22T03:02:53.709Z,100622.00
2019-05-22T03:05:25.252Z,100614.00
2019-05-22T03:07:55.154Z,100617.00
2019-05-22T03:10:25.720Z,100609.00
2019-05-22T03:12:58.379Z,100610.00
2019-05-22T03:15:28.464Z,100618.00
2019-05-22T03:18:02.892Z,100613.00
2019-05-22T03:20:34.041Z,100608.00
2019-05-22T03:23:39.845Z,100612.00
2019-05-22T03:26:10.945Z,100617.00
2019-05-22T03:28:42.325Z,100603.00
2019-05-22T03:31:13.116Z,100613.00
2019-05-22T03:33:43.484Z,100609.00
2019-05-22T03:36:18.668Z,100601.00
2019-05-22T03:38:50.713Z,100606.00
2019-05-22T03:41:20.969Z,100602.00
2019-05-22T03:43:53.345Z,100594.00
2019-05-22T03:46:37.335Z,100611.00
2019-05-22T03:49:28.217Z,100608.00
2019-05-22T03:51:49.452Z,100602.00
2019-05-22T03:54:20.650Z,100604.00
2019-05-22T03:56:52.106Z,100615.00
2019-05-22T03:59:22.556Z,100608.00
2019-05-22T04:01:54.600Z,100618.00
2019-05-22T04:04:37.429Z,100609.00
2019-05-22T04:07:08.989Z,100602.00
2019-05-22T04:09:43.154Z,100612.00
2019-05-22T04:12:13.380Z,100609.00
2019-05-22T04:14:44.175Z,100612.00
2019-05-22T04:17:16.229Z,100615.00
2019-05-22T04:19:51.077Z,100599.00
2019-05-22T04:22:20.126Z,100607.00
2019-05-22T04:24:51.598Z,100600.00
2019-05-22T04:27:21.563Z,100605.00
2019-05-22T04:29:54.053Z,100598.00
2019-05-22T04:32:28.800Z,100594.00
2019-05-22T04:34:58.956Z,100601.00
2019-05-22T04:37:31.033Z,100594.00
2019-05-22T04:40:24.760Z,100605.00
2019-05-22T04:42:57.180Z,100594.00
2019-05-22T04:45:29.246Z,100595.00
2019-05-22T04:48:05.374Z,100604.00
2019-05-22T04:50:35.327Z,100597.00
2019-05-22T04:53:05.182Z,100602.00
2019-05-22T04:55:35.452Z,100605.00
2019-05-22T04:58:11.428Z,100600.00
2019-05-22T05:00:41.519Z,100604.00
2019-05-22T05:03:13.068Z,100605.00
2019-05-22T05:05:51.084Z,100608.00
2019-05-22T05:08:21.590Z,100603.00
2019-05-22T05:10:53.199Z,100604.00
2019-05-22T05:13:23.217Z,100601.00
2019-05-22T05:15:52.872Z,100612.00
2019-05-22T05:18:23.463Z,100607.00
2019-05-22T05:20:53.270Z,100607.00
2019-05-22T05:23:24.121Z,100608.00
2019-05-22T05:25:53.862Z,100601.00
2019-05-22T05:28:23.663Z,100605.00
2019-05-22T05:30:54.403Z,100601.00
2019-05-22T05:33:25.329Z,100609.00
2019-05-22T05:35:56.003Z,100604.00
2019-05-22T05:38:39.097Z,100612.00
2019-05-22T05:41:09.677Z,100612.00
2019-05-22T05:43:39.953Z,100613.00
2019-05-22T05:46:09.636Z,100617.00
2019-05-22T05:48:40.197Z,100620.00
2019-05-22T05:51:16.773Z,100616.00
2019-05-22T05:54:03.164Z,100615.00
2019-05-22T05:56:35.709Z,100620.00
2019-05-22T05:59:10.882Z,100627.00
2019-05-22T06:01:42.573Z,100616.00
2019-05-22T06:04:13.571Z,100620.00
2019-05-22T06:06:56.296Z,100618.00
2019-05-22T06:09:30.152Z,100622.00
2019-05-22T06:12:05.462Z,100614.00
2019-05-22T06:14:36.799Z,100610.00
2019-05-22T06:17:47.298Z,100615.00
2019-05-22T06:20:19.572Z,100616.00
2019-05-22T06:23:23.340Z,100613.00
2019-05-22T06:25:55.379Z,100615.00
2019-05-22T06:28:28.711Z,100617.00
2019-05-22T06:31:02.540Z,100620.00
2019-05-22T06:33:35.013Z,100620.00
2019-05-22T06:36:12.849Z,100613.00
2019-05-22T06:39:00.137Z,100629.00
2019-05-22T06:41:36.004Z,100625.00
2019-05-22T06:44:42.922Z,100626.00
2019-05-22T06:47:16.122Z,100638.00
2019-05-22T06:49:49.269Z,100640.00
2019-05-22T06:52:19.483Z,100628.00
2019-05-22T06:54:49.964Z,100631.00
2019-05-22T06:57:21.629Z,100629.00
2019-05-22T07:00:11.256Z,100643.00
2019-05-22T07:02:26.299Z,100633.00
2019-05-22T07:04:56.797Z,100640.00
2019-05-22T07:07:27.692Z,100637.00
2019-05-22T07:09:58.599Z,100634.00
2019-05-22T07:12:29.361Z,100628.00
2019-05-22T07:15:11.319Z,100636.00
2019-05-22T07:17:42.028Z,100631.00
2019-05-22T07:20:13.806Z,100624.00
2019-05-22T07:22:44.614Z,100633.00
2019-05-22T07:25:14.965Z,100636.00
2019-05-22T07:27:46.409Z,100637.00
2019-05-22T07:30:17.060Z,100632.00
2019-05-22T07:32:47.058Z,100631.00
2019-05-22T07:35:18.570Z,100633.00
2019-05-22T07:37:49.431Z,100634.00
2019-05-22T07:40:21.334Z,100631.00
2019-05-22T07:42:53.080Z,100632.00
2019-05-22T07:45:27.207Z,100631.00
2019-05-22T07:47:58.232Z,100638.00
2019-05-22T07:50:31.448Z,100638.00
2019-05-22T07:53:02.419Z,100634.00
2019-05-22T07:55:36.060Z,100644.00
2019-05-22T07:58:10.317Z,100639.00
2019-05-22T08:00:45.062Z,100637.00
2019-05-22T08:03:15.317Z,100637.00
2019-05-22T08:05:55.086Z,100637.00
2019-05-22T08:08:26.631Z,100632.00
2019-05-22T08:10:58.651Z,100639.00
2019-05-22T08:13:30.468Z,100643.00
2019-05-22T08:16:00.649Z,100630.00
2019-05-22T08:18:32.966Z,100631.00
2019-05-22T08:21:03.174Z,100631.00
2019-05-22T08:23:33.683Z,100631.00
2019-05-22T08:26:04.939Z,100621.00
2019-05-22T08:28:37.099Z,100631.00
2019-05-22T08:31:10.400Z,100637.00
2019-05-22T08:33:40.787Z,100626.00
2019-05-22T08:36:12.066Z,100625.00
2019-05-22T08:38:46.680Z,100623.00
2019-05-22T08:41:20.910Z,100624.00
2019-05-22T08:44:14.625Z,100639.00
2019-05-22T08:46:27.929Z,100629.00
2019-05-22T08:48:59.055Z,100637.00
2019-05-22T08:51:29.481Z,100636.00
2019-05-22T08:54:05.368Z,100633.00
2019-05-22T08:56:39.206Z,100630.00
2019-05-22T08:59:19.533Z,100630.00
2019-05-22T09:01:42.739Z,100623.00
2019-05-22T09:04:12.675Z,100625.00
2019-05-22T09:06:42.849Z,100618.00
2019-05-22T09:09:13.221Z,100624.00
2019-05-22T09:11:43.186Z,100621.00
2019-05-22T09:14:12.891Z,100618.00
2019-05-22T09:16:44.019Z,100619.00
2019-05-22T09:19:14.241Z,100616.00
2019-05-22T09:21:44.778Z,100614.00
2019-05-22T09:24:17.506Z,100614.00
2019-05-22T09:26:50.803Z,100604.00
2019-05-22T09:29:21.832Z,100608.00
2019-05-22T09:31:51.792Z,100610.00
2019-05-22T09:34:21.747Z,100609.00
2019-05-22T09:36:51.513Z,100601.00
2019-05-22T09:39:22.558Z,100606.00
2019-05-22T09:41:52.267Z,100597.00
2019-05-22T09:44:22.110Z,100609.00
2019-05-22T09:46:52.065Z,100578.00
2019-05-22T09:49:24.177Z,100609.00
2019-05-22T09:51:55.090Z,100612.00
2019-05-22T09:54:25.445Z,100612.00
2019-05-22T09:56:55.813Z,100607.00
2019-05-22T09:59:25.478Z,100607.00
2019-05-22T10:01:55.630Z,100605.00
2019-05-22T10:04:25.472Z,100609.00
2019-05-22T10:06:55.341Z,100603.00
2019-05-22T10:09:26.209Z,100608.00
2019-05-22T10:11:56.289Z,100602.00
2019-05-22T10:14:26.226Z,100602.00
2019-05-22T10:16:56.471Z,100602.00
2019-05-22T10:19:26.325Z,100607.00
2019-05-22T10:21:56.881Z,100594.00
2019-05-22T10:24:27.419Z,100598.00
2019-05-22T10:26:59.085Z,100603.00
2019-05-22T10:29:32.182Z,100588.00
2019-05-22T10:32:00.231Z,100602.00
2019-05-22T10:34:30.402Z,100589.00
2019-05-22T10:37:00.450Z,100597.00
2019-05-22T10:39:31.763Z,100576.00
2019-05-22T10:42:01.459Z,100582.00
2019-05-22T10:44:31.408Z,100576.00
2019-05-22T10:47:01.272Z,100569.00
2019-05-22T10:49:32.304Z,100568.00
2019-05-22T10:52:02.078Z,100581.00
2019-05-22T10:54:31.817Z,100581.00
2019-05-22T10:57:01.926Z,100571.00
2019-05-22T10:59:32.692Z,100571.00
2019-05-22T11:02:02.584Z,100570.00
2019-05-22T11:04:32.706Z,100568.00
2019-05-22T11:07:03.572Z,100577.00
2019-05-22T11:09:34.131Z,100572.00
2019-05-22T11:12:06.835Z,100573.00
2019-05-22T11:14:36.509Z,100572.00
2019-05-22T11:17:07.155Z,100567.00
2019-05-22T11:19:37.306Z,100554.00
2019-05-22T11:22:08.949Z,100566.00
2019-05-22T11:24:39.121Z,100561.00
2019-05-22T11:27:09.395Z,100578.00
2019-05-22T11:29:40.323Z,100573.00
2019-05-22T11:32:11.513Z,100565.00
2019-05-22T11:34:41.291Z,100550.00
2019-05-22T11:37:11.218Z,100562.00
2019-05-22T11:39:44.808Z,100570.00
2019-05-22T11:42:17.929Z,100528.00
2019-05-22T11:44:47.709Z,100566.00
2019-05-22T11:47:18.548Z,100579.00
2019-05-22T11:49:48.546Z,100566.00
2019-05-22T11:52:18.991Z,100568.00
2019-05-22T11:54:48.790Z,100578.00
2019-05-22T11:57:20.134Z,100569.00
2019-05-22T11:59:49.889Z,100576.00
2019-05-22T12:02:22.232Z,100557.00
2019-05-22T12:04:53.984Z,100550.00
2019-05-22T12:07:24.629Z,100547.00
2019-05-22T12:09:55.178Z,100558.00
2019-05-22T12:12:26.644Z,100548.00
2019-05-22T12:14:56.705Z,100551.00
2019-05-22T12:17:37.505Z,100544.00
2019-05-22T12:19:58.676Z,100552.00
2019-05-22T12:22:30.363Z,100534.00
2019-05-22T12:25:01.964Z,100545.00
2019-05-22T12:27:32.061Z,100545.00
2019-05-22T12:30:03.162Z,100549.00
2019-05-22T12:32:34.303Z,100543.00
2019-05-22T12:35:05.205Z,100539.00
2019-05-22T12:37:35.862Z,100537.00
2019-05-22T12:40:08.558Z,100550.00
2019-05-22T12:42:39.490Z,100543.00
2019-05-22T12:45:11.282Z,100535.00
2019-05-22T12:47:43.246Z,100528.00
2019-05-22T12:50:17.083Z,100528.00
2019-05-22T12:52:51.244Z,100534.00
2019-05-22T12:55:21.590Z,100529.00
2019-05-22T12:57:54.308Z,100538.00
2019-05-22T13:00:27.359Z,100526.00
2019-05-22T13:03:00.835Z,100534.00
2019-05-22T13:05:31.970Z,100533.00
2019-05-22T13:08:03.000Z,100534.00
2019-05-22T13:10:34.154Z,100531.00
2019-05-22T13:13:04.538Z,100542.00
2019-05-22T13:15:39.113Z,100532.00
2019-05-22T13:18:13.032Z,100518.00
2019-05-22T13:20:50.252Z,100517.00
2019-05-22T13:23:24.997Z,100514.00
2019-05-22T13:25:55.558Z,100515.00
2019-05-22T13:28:28.634Z,100516.00
2019-05-22T13:31:00.089Z,100507.00
2019-05-22T13:33:31.599Z,100494.00
2019-05-22T13:36:03.025Z,100501.00
2019-05-22T13:38:33.468Z,100503.00
2019-05-22T13:41:04.609Z,100499.00
2019-05-22T13:43:38.182Z,100491.00
2019-05-22T13:46:08.479Z,100485.00
2019-05-22T13:48:38.653Z,100476.00
2019-05-22T13:51:11.007Z,100484.00
2019-05-22T13:53:45.505Z,100464.00
2019-05-22T13:56:17.887Z,100487.00
2019-05-22T13:58:49.895Z,100487.00
2019-05-22T14:01:21.815Z,100484.00
2019-05-22T14:03:53.159Z,100464.00
2019-05-22T14:06:24.161Z,100475.00
2019-05-22T14:08:54.440Z,100482.00
2019-05-22T14:11:26.077Z,100481.00
2019-05-22T14:13:55.738Z,100489.00
2019-05-22T14:16:27.054Z,100497.00
2019-05-22T14:18:56.735Z,100491.00
2019-05-22T14:21:26.579Z,100474.00
2019-05-22T14:23:56.485Z,100463.00
2019-05-22T14:26:30.120Z,100470.00
2019-05-22T14:29:00.272Z,100469.00
2019-05-22T14:31:30.277Z,100474.00
2019-05-22T14:34:00.469Z,100488.00
2019-05-22T14:36:30.631Z,100485.00
2019-05-22T14:39:00.531Z,100462.00
2019-05-22T14:41:30.298Z,100459.00
2019-05-22T14:44:00.449Z,100473.00
2019-05-22T14:46:30.341Z,100476.00
2019-05-22T14:49:00.144Z,100480.00
2019-05-22T14:51:30.210Z,100466.00
2019-05-22T14:54:00.514Z,100451.00
2019-05-22T14:56:30.544Z,100468.00
2019-05-22T14:59:01.195Z,100476.00
2019-05-22T15:01:31.171Z,100476.00
2019-05-22T15:04:02.333Z,100461.00
2019-05-22T15:06:32.381Z,100475.00
2019-05-22T15:09:02.088Z,100471.00
2019-05-22T15:11:32.198Z,100449.00
2019-05-22T15:14:02.045Z,100447.00
2019-05-22T15:16:32.038Z,100464.00
2019-05-22T15:19:01.705Z,100450.00
2019-05-22T15:21:31.457Z,100458.00
2019-05-22T15:24:02.033Z,100457.00
2019-05-22T15:26:32.392Z,100477.00
2019-05-22T15:29:02.138Z,100475.00
2019-05-22T15:31:32.820Z,100473.00
2019-05-22T15:34:05.554Z,100459.00
2019-05-22T15:36:37.655Z,100472.00
2019-05-22T15:39:11.171Z,100444.00
2019-05-22T15:41:42.070Z,100450.00
2019-05-22T15:44:12.533Z,100465.00
2019-05-22T15:46:44.291Z,100470.00
2019-05-22T15:49:16.340Z,100446.00
2019-05-22T15:51:47.702Z,100455.00
2019-05-22T15:54:19.359Z,100455.00
2019-05-22T15:56:49.609Z,100439.00
2019-05-22T15:59:21.823Z,100451.00
2019-05-22T16:01:52.984Z,100446.00
2019-05-22T16:04:23.727Z,100438.00
2019-05-22T16:06:55.254Z,100434.00
2019-05-22T16:09:27.326Z,100441.00
2019-05-22T16:11:57.560Z,100438.00
2019-05-22T16:14:31.378Z,100444.00
2019-05-22T16:17:03.969Z,100448.00
2019-05-22T16:19:34.405Z,100455.00
2019-05-22T16:22:09.203Z,100438.00
2019-05-22T16:24:41.119Z,100438.00
2019-05-22T16:27:14.480Z,100433.00
2019-05-22T16:29:46.105Z,100442.00
2019-05-22T16:32:19.153Z,100434.00
2019-05-22T16:34:49.096Z,100430.00
2019-05-22T16:37:20.046Z,100430.00
2019-05-22T16:39:51.624Z,100443.00
2019-05-22T16:42:22.683Z,100437.00
2019-05-22T16:44:52.823Z,100437.00
2019-05-22T16:47:24.117Z,100418.00
2019-05-22T16:49:54.859Z,100443.00
2019-05-22T16:52:28.435Z,100427.00
2019-05-22T16:54:58.808Z,100430.00
2019-05-22T16:57:31.684Z,100435.00
2019-05-22T17:00:02.242Z,100418.00
2019-05-22T17:02:34.860Z,100427.00
2019-05-22T17:05:07.883Z,100425.00
2019-05-22T17:07:39.902Z,100418.00
2019-05-22T17:10:12.026Z,100419.00
2019-05-22T17:13:03.139Z,100431.00
2019-05-22T17:15:35.485Z,100417.00
2019-05-22T17:18:05.702Z,100420.00
2019-05-22T17:20:36.877Z,100421.00
2019-05-22T17:23:07.401Z,100414.00
2019-05-22T17:25:38.041Z,100414.00
2019-05-22T17:28:09.466Z,100424.00
2019-05-22T17:30:40.214Z,100419.00
2019-05-22T17:33:11.364Z,100418.00
2019-05-22T17:35:42.109Z,100412.00
2019-05-22T17:38:17.089Z,100397.00
2019-05-22T17:40:48.292Z,100408.00
2019-05-22T17:43:19.662Z,100385.00
2019-05-22T17:45:51.493Z,100399.00
2019-05-22T17:48:22.153Z,100390.00
2019-05-22T17:50:53.314Z,100397.00
2019-05-22T17:53:23.876Z,100379.00
2019-05-22T17:55:54.417Z,100398.00
2019-05-22T17:58:29.482Z,100391.00
2019-05-22T18:00:57.960Z,100382.00
2019-05-22T18:03:28.005Z,100392.00
2019-05-22T18:05:58.981Z,100390.00
2019-05-22T18:08:30.062Z,100392.00
2019-05-22T18:11:03.879Z,100390.00
2019-05-22T18:13:38.208Z,100391.00
2019-05-22T18:16:10.052Z,100391.00
2019-05-22T18:18:40.562Z,100386.00
2019-05-22T18:21:11.705Z,100377.00
2019-05-22T18:23:42.733Z,100377.00
2019-05-22T18:26:13.309Z,100378.00
2019-05-22T18:28:44.896Z,100385.00
2019-05-22T18:31:16.687Z,100376.00
2019-05-22T18:33:47.830Z,100381.00
2019-05-22T18:36:18.687Z,100372.00
2019-05-22T18:38:49.281Z,100365.00
2019-05-22T18:41:21.186Z,100379.00
2019-05-22T18:43:52.601Z,100364.00
2019-05-22T18:46:22.962Z,100368.00
2019-05-22T18:48:53.767Z,100371.00
2019-05-22T18:51:25.240Z,100376.00
2019-05-22T18:53:58.818Z,100376.00
2019-05-22T18:56:30.380Z,100368.00
2019-05-22T18:59:01.252Z,100366.00
2019-05-22T19:01:33.026Z,100376.00
2019-05-22T19:04:03.756Z,100378.00
2019-05-22T19:06:34.540Z,100367.00
2019-05-22T19:09:06.495Z,100374.00
2019-05-22T19:11:37.520Z,100372.00
2019-05-22T19:14:08.935Z,100377.00
2019-05-22T19:16:40.344Z,100380.00
2019-05-22T19:19:11.534Z,100392.00
2019-05-22T19:21:42.639Z,100382.00
2019-05-22T19:24:13.487Z,100382.00
2019-05-22T19:26:43.922Z,100383.00
2019-05-22T19:29:14.974Z,100382.00
2019-05-22T19:31:45.443Z,100381.00
2019-05-22T19:34:15.718Z,100388.00
2019-05-22T19:36:47.497Z,100385.00
2019-05-22T19:39:17.910Z,100384.00
2019-05-22T19:42:01.338Z,100387.00
2019-05-22T19:44:19.934Z,100381.00
2019-05-22T19:46:52.887Z,100401.00
2019-05-22T19:49:25.783Z,100396.00
2019-05-22T19:51:58.076Z,100366.00
2019-05-22T19:54:29.671Z,100393.00
2019-05-22T19:57:04.771Z,100399.00
2019-05-22T19:59:35.604Z,100405.00
2019-05-22T20:02:07.724Z,100409.00
2019-05-22T20:04:39.008Z,100408.00
2019-05-22T20:07:10.836Z,100413.00
2019-05-22T20:09:40.560Z,100407.00
2019-05-22T20:12:12.371Z,100415.00
2019-05-22T20:14:42.093Z,100410.00
2019-05-22T20:17:13.535Z,100409.00
2019-05-22T20:19:43.842Z,100412.00
2019-05-22T20:22:15.213Z,100409.00
2019-05-22T20:24:45.124Z,100408.00
2019-05-22T20:27:15.563Z,100407.00
2019-05-22T20:29:46.348Z,100412.00
2019-05-22T20:32:16.395Z,100417.00
2019-05-22T20:34:47.833Z,100412.00
2019-05-22T20:37:18.388Z,100420.00
2019-05-22T20:39:48.284Z,100414.00
2019-05-22T20:42:18.215Z,100416.00
2019-05-22T20:44:48.608Z,100411.00
2019-05-22T20:47:22.503Z,100423.00
2019-05-22T20:49:52.518Z,100419.00
2019-05-22T20:52:22.957Z,100416.00
2019-05-22T20:54:54.972Z,100419.00
2019-05-22T20:57:26.454Z,100424.00
2019-05-22T20:59:58.306Z,100421.00
2019-05-22T21:02:30.624Z,100413.00
2019-05-22T21:05:01.014Z,100422.00
2019-05-22T21:07:36.106Z,100412.00
2019-05-22T21:10:09.162Z,100412.00
2019-05-22T21:12:39.306Z,100412.00
2019-05-22T21:15:10.152Z,100407.00
2019-05-22T21:17:42.089Z,100415.00
2019-05-22T21:20:14.827Z,100417.00
2019-05-22T21:22:45.970Z,100416.00
2019-05-22T21:25:16.546Z,100408.00
2019-05-22T21:27:46.797Z,100408.00
2019-05-22T21:30:17.588Z,100412.00
2019-05-22T21:32:47.919Z,100410.00
2019-05-22T21:35:21.402Z,100406.00
2019-05-22T21:37:52.029Z,100409.00
2019-05-22T21:40:25.301Z,100411.00
2019-05-22T21:42:56.546Z,100414.00
2019-05-22T21:45:26.899Z,100403.00
2019-05-22T21:47:57.114Z,100395.00
2019-05-22T21:50:27.394Z,100396.00
2019-05-22T21:52:58.260Z,100401.00
2019-05-22T21:55:30.596Z,100398.00
2019-05-22T21:58:01.192Z,100408.00
2019-05-22T22:00:40.069Z,100402.00
2019-05-22T22:03:19.436Z,100401.00
2019-05-22T22:05:49.431Z,100399.00
2019-05-22T22:08:19.410Z,100396.00
2019-05-22T22:10:49.767Z,100400.00
2019-05-22T22:13:21.533Z,100399.00
2019-05-22T22:15:51.698Z,100396.00
2019-05-22T22:18:24.753Z,100400.00
2019-05-22T22:20:57.467Z,100398.00
2019-05-22T22:23:29.493Z,100396.00
2019-05-22T22:26:00.626Z,100383.00
2019-05-22T22:28:31.513Z,100388.00
2019-05-22T22:31:08.315Z,100391.00
2019-05-22T22:33:40.482Z,100387.00
2019-05-22T22:36:11.418Z,100378.00
2019-05-22T22:38:43.095Z,100392.00
2019-05-22T22:41:14.180Z,100388.00
2019-05-22T22:43:49.220Z,100392.00
2019-05-22T22:46:36.291Z,100395.00
2019-05-22T22:49:09.119Z,100394.00
2019-05-22T22:51:39.067Z,100402.00
2019-05-22T22:54:10.247Z,100393.00
2019-05-22T22:56:41.072Z,100400.00
2019-05-22T22:59:15.029Z,100388.00
2019-05-22T23:01:50.714Z,100393.00
2019-05-22T23:04:24.518Z,100398.00
2019-05-22T23:06:58.774Z,100395.00
2019-05-22T23:09:31.913Z,100397.00
2019-05-22T23:12:04.324Z,100386.00
2019-05-22T23:14:36.489Z,100379.00
2019-05-22T23:17:07.137Z,100388.00
2019-05-22T23:19:36.073Z,100391.00
2019-05-22T23:22:05.760Z,100384.00
2019-05-22T23:24:39.246Z,100392.00
2019-05-22T23:27:10.799Z,100379.00
2019-05-22T23:29:42.366Z,100386.00
2019-05-22T23:32:14.423Z,100384.00
2019-05-22T23:34:45.398Z,100385.00
2019-05-22T23:37:18.669Z,100384.00
2019-05-22T23:39:53.113Z,100387.00
2019-05-22T23:42:28.614Z,100385.00
2019-05-22T23:45:01.340Z,100384.00
2019-05-22T23:47:35.127Z,100387.00
2019-05-22T23:50:07.438Z,100378.00
2019-05-22T23:52:38.174Z,100387.00
2019-05-22T23:55:10.480Z,100386.00
2019-05-22T23:57:42.330Z,100355.00
